Time;durP1;ratioP1;P1;durP2;ratioP2;P2;SDS_P1;SDS_P2;PMS_P1;PMS_P2;Temp;Humidity;BMP_temperature;BMP_pressure;BME280_temperature;BME280_humidity;BME280_pressure;Samples;Min_cycle;Max_cycle;Signal;HPM_P1;HPM_P2
2022/12/03 00:00:35;;;;;;;35.92;21.45;;;;;;;;;;5042993;28;20057;-69
2022/12/03 00:03:01;;;;;;;34.70;21.80;;;;;;;;;;5043983;28;20062;-70
2022/12/03 00:05:27;;;;;;;40.53;22.80;;;;;;;;;;5042801;28;20056;-70
2022/12/03 00:07:52;;;;;;;35.97;22.13;;;;;;;;;;5042947;28;20152;-70
2022/12/03 00:10:19;;;;;;;39.53;22.33;;;;;;;;;;5042340;28;20052;-68
2022/12/03 00:12:45;;;;;;;39.33;21.55;;;;;;;;;;5041910;28;20086;-70
2022/12/03 00:15:11;;;;;;;39.50;23.15;;;;;;;;;;5045123;28;20048;-69
2022/12/03 00:17:37;;;;;;;37.00;21.15;;;;;;;;;;5042443;28;20048;-70
2022/12/03 00:20:04;;;;;;;41.25;22.13;;;;;;;;;;5041930;28;20140;-69
2022/12/03 00:22:30;;;;;;;36.95;21.58;;;;;;;;;;5043002;28;20052;-71
2022/12/03 00:24:56;;;;;;;39.10;22.38;;;;;;;;;;5042991;28;20048;-71
2022/12/03 00:27:22;;;;;;;36.80;21.52;;;;;;;;;;5042021;28;20518;-69
2022/12/03 00:29:48;;;;;;;40.28;22.48;;;;;;;;;;5043213;28;20069;-71
2022/12/03 00:32:14;;;;;;;40.13;22.50;;;;;;;;;;5023598;28;20041;-70
2022/12/03 00:34:40;;;;;;;41.38;22.23;;;;;;;;;;5044151;28;20365;-69
2022/12/03 00:37:06;;;;;;;40.70;21.58;;;;;;;;;;5042684;28;20055;-71
2022/12/03 00:39:32;;;;;;;38.38;22.13;;;;;;;;;;5044776;28;20045;-71
2022/12/03 00:41:58;;;;;;;37.58;22.58;;;;;;;;;;5042884;28;20053;-70
2022/12/03 00:44:24;;;;;;;37.85;21.77;;;;;;;;;;5046909;28;20040;-70
2022/12/03 00:46:50;;;;;;;38.20;21.98;;;;;;;;;;5047093;28;20072;-69
2022/12/03 00:49:16;;;;;;;39.75;22.08;;;;;;;;;;5046965;28;20077;-69
2022/12/03 00:51:42;;;;;;;37.58;21.92;;;;;;;;;;5044790;28;20037;-69
2022/12/03 00:54:08;;;;;;;37.90;22.50;;;;;;;;;;5046964;28;20052;-69
2022/12/03 00:56:34;;;;;;;38.00;21.20;;;;;;;;;;5048590;28;20752;-71
2022/12/03 00:59:00;;;;;;;43.45;22.27;;;;;;;;;;5047438;28;20043;-71
2022/12/03 01:01:26;;;;;;;38.22;22.55;;;;;;;;;;5047087;28;20053;-70
2022/12/03 01:03:52;;;;;;;38.10;22.13;;;;;;;;;;5048231;28;20431;-69
2022/12/03 01:06:18;;;;;;;38.60;21.77;;;;;;;;;;5046419;28;20091;-69
2022/12/03 01:08:44;;;;;;;38.50;21.25;;;;;;;;;;5044369;28;20052;-70
2022/12/03 01:11:36;;;;;;;41.47;22.88;;;;;;;;;;5044516;28;20049;-68
2022/12/03 01:13:56;;;;;;;35.80;21.13;;;;;;;;;;5046056;28;20069;-69
2022/12/03 01:16:22;;;;;;;36.65;21.80;;;;;;;;;;5044654;28;20106;-71
2022/12/03 01:18:51;;;;;;;37.25;20.98;;;;;;;;;;5046690;28;20064;-69
2022/12/03 01:21:17;;;;;;;38.67;23.08;;;;;;;;;;5046166;28;20040;-70
2022/12/03 01:23:43;;;;;;;38.25;22.70;;;;;;;;;;5046828;28;20072;-70
2022/12/03 01:26:09;;;;;;;38.83;21.73;;;;;;;;;;5045375;28;20057;-70
2022/12/03 01:28:35;;;;;;;38.35;21.42;;;;;;;;;;5046925;28;21599;-69
2022/12/03 01:33:45;;;;;;;37.85;21.45;;;;;;;;;;5046181;28;20049;-70
2022/12/03 01:36:11;;;;;;;39.03;22.45;;;;;;;;;;5044964;28;20067;-70
2022/12/03 01:38:37;;;;;;;34.85;21.42;;;;;;;;;;5047417;28;20044;-70
2022/12/03 01:41:03;;;;;;;34.80;21.17;;;;;;;;;;5044180;28;20049;-69
2022/12/03 01:43:29;;;;;;;37.47;22.45;;;;;;;;;;5042409;28;20187;-71
2022/12/03 01:45:55;;;;;;;36.63;21.42;;;;;;;;;;5041451;28;20057;-70
2022/12/03 01:48:21;;;;;;;34.88;21.13;;;;;;;;;;5041838;28;20113;-70
2022/12/03 01:50:47;;;;;;;36.38;22.10;;;;;;;;;;5045440;28;20048;-70
2022/12/03 01:53:15;;;;;;;36.17;21.83;;;;;;;;;;5045157;28;20495;-70
2022/12/03 01:55:44;;;;;;;34.55;21.00;;;;;;;;;;5043992;28;20159;-70
2022/12/03 01:58:13;;;;;;;35.05;21.30;;;;;;;;;;5043640;28;20140;-70
2022/12/03 02:00:40;;;;;;;32.22;20.98;;;;;;;;;;5046570;28;20053;-71
2022/12/03 02:03:16;;;;;;;34.22;21.42;;;;;;;;;;5044228;28;20055;-71
2022/12/03 02:05:42;;;;;;;33.72;21.17;;;;;;;;;;5042993;28;20487;-70
2022/12/03 02:08:27;;;;;;;33.15;21.33;;;;;;;;;;5044466;28;20770;-69
2022/12/03 02:10:53;;;;;;;33.60;21.45;;;;;;;;;;5044294;28;20045;-70
2022/12/03 02:13:19;;;;;;;33.28;21.00;;;;;;;;;;5044375;28;20067;-69
2022/12/03 02:15:45;;;;;;;36.30;22.02;;;;;;;;;;5046670;28;20049;-69
2022/12/03 02:18:11;;;;;;;34.17;20.98;;;;;;;;;;5045429;28;20138;-69
2022/12/03 02:20:41;;;;;;;35.55;22.35;;;;;;;;;;5042540;28;20167;-71
2022/12/03 02:23:13;;;;;;;32.08;21.02;;;;;;;;;;5044215;28;20073;-69
2022/12/03 02:25:39;;;;;;;32.13;21.20;;;;;;;;;;5042671;28;20561;-70
2022/12/03 02:28:07;;;;;;;34.97;21.70;;;;;;;;;;5043319;28;20373;-70
2022/12/03 02:30:33;;;;;;;34.58;21.63;;;;;;;;;;5043618;28;20074;-70
2022/12/03 02:33:00;;;;;;;32.42;21.90;;;;;;;;;;5043102;28;20076;-70
2022/12/03 02:35:28;;;;;;;30.52;20.30;;;;;;;;;;4498367;28;15038515;-70
2022/12/03 02:37:59;;;;;;;32.72;20.60;;;;;;;;;;5044507;28;20049;-71
2022/12/03 02:40:27;;;;;;;32.10;21.13;;;;;;;;;;5045472;28;20433;-70
2022/12/03 02:42:55;;;;;;;34.22;21.75;;;;;;;;;;5043954;28;20045;-69
2022/12/03 02:45:25;;;;;;;31.55;21.13;;;;;;;;;;5045317;28;20052;-71
2022/12/03 02:48:12;;;;;;;34.65;21.85;;;;;;;;;;5047457;28;20069;-70
2022/12/03 02:50:40;;;;;;;31.55;20.58;;;;;;;;;;5043826;28;20037;-69
2022/12/03 02:53:09;;;;;;;32.42;21.75;;;;;;;;;;5044403;28;20133;-70
2022/12/03 02:55:35;;;;;;;31.33;19.92;;;;;;;;;;5044253;28;20190;-71
2022/12/03 02:58:03;;;;;;;32.88;21.23;;;;;;;;;;5045680;28;20515;-70
2022/12/03 03:00:29;;;;;;;33.53;21.52;;;;;;;;;;5043527;28;20045;-71
2022/12/03 03:02:55;;;;;;;33.22;22.60;;;;;;;;;;5040815;28;20412;-70
2022/12/03 03:05:22;;;;;;;32.50;21.65;;;;;;;;;;5043669;28;20657;-71
2022/12/03 03:07:49;;;;;;;30.75;21.13;;;;;;;;;;5040945;28;20045;-69
2022/12/03 03:10:17;;;;;;;33.75;21.58;;;;;;;;;;5044745;28;20045;-70
2022/12/03 03:12:43;;;;;;;37.58;22.08;;;;;;;;;;5042471;28;20135;-68
2022/12/03 03:15:10;;;;;;;34.88;21.50;;;;;;;;;;5029908;28;20056;-70
2022/12/03 03:17:36;;;;;;;32.35;21.45;;;;;;;;;;5043097;28;20056;-70
2022/12/03 03:20:04;;;;;;;33.22;21.38;;;;;;;;;;5042548;28;20144;-70
2022/12/03 03:22:34;;;;;;;32.03;20.65;;;;;;;;;;5041837;28;20075;-70
2022/12/03 03:25:00;;;;;;;34.83;21.08;;;;;;;;;;5038901;28;20515;-71
2022/12/03 03:27:27;;;;;;;31.65;20.88;;;;;;;;;;5041206;28;20059;-68
2022/12/03 03:29:53;;;;;;;30.70;20.80;;;;;;;;;;5042088;28;20050;-70
2022/12/03 03:32:19;;;;;;;31.80;21.15;;;;;;;;;;5040999;28;20045;-69
2022/12/03 03:34:46;;;;;;;30.80;20.23;;;;;;;;;;5042102;28;20049;-69
2022/12/03 03:37:12;;;;;;;31.77;21.60;;;;;;;;;;5045501;28;20098;-68
2022/12/03 03:39:38;;;;;;;32.78;21.77;;;;;;;;;;5042480;28;20040;-68
2022/12/03 03:42:04;;;;;;;32.47;22.10;;;;;;;;;;5040177;28;20068;-69
2022/12/03 03:44:31;;;;;;;32.13;22.05;;;;;;;;;;5039860;28;20051;-70
2022/12/03 03:46:57;;;;;;;34.70;22.42;;;;;;;;;;5041035;28;20446;-70
2022/12/03 03:49:23;;;;;;;34.47;22.20;;;;;;;;;;5041357;28;20052;-71
2022/12/03 03:51:49;;;;;;;34.33;21.90;;;;;;;;;;5039945;28;20048;-69
2022/12/03 03:54:15;;;;;;;33.28;21.33;;;;;;;;;;5042472;28;20064;-69
2022/12/03 03:56:42;;;;;;;33.17;22.02;;;;;;;;;;5042180;28;20052;-72
2022/12/03 03:59:08;;;;;;;33.10;20.77;;;;;;;;;;5043991;28;20068;-70
2022/12/03 04:01:34;;;;;;;30.98;20.48;;;;;;;;;;5043599;28;20407;-71
2022/12/03 04:04:00;;;;;;;34.05;20.90;;;;;;;;;;5043229;28;20055;-71
2022/12/03 04:06:27;;;;;;;33.33;21.42;;;;;;;;;;5044238;28;20465;-71
2022/12/03 04:08:53;;;;;;;32.33;21.25;;;;;;;;;;5026675;28;20095;-71
2022/12/03 04:14:03;;;;;;;34.67;21.60;;;;;;;;;;5043009;28;20041;-71
2022/12/03 04:16:29;;;;;;;33.03;21.80;;;;;;;;;;5041284;28;20056;-68
2022/12/03 04:18:55;;;;;;;33.40;21.77;;;;;;;;;;5043891;28;20044;-68
2022/12/03 04:24:08;;;;;;;34.80;21.58;;;;;;;;;;5039187;28;20044;-71
2022/12/03 04:29:19;;;;;;;33.65;21.85;;;;;;;;;;5042360;28;20037;-69
2022/12/03 04:37:15;;;;;;;34.15;21.58;;;;;;;;;;5041754;28;20041;-69
2022/12/03 04:39:41;;;;;;;35.00;21.55;;;;;;;;;;5042580;28;20541;-70
2022/12/03 04:42:07;;;;;;;30.65;20.92;;;;;;;;;;5039807;28;20095;-71
2022/12/03 04:44:36;;;;;;;31.60;21.20;;;;;;;;;;5042994;28;20045;-71
2022/12/03 04:47:08;;;;;;;31.60;20.88;;;;;;;;;;5043179;28;20128;-71
2022/12/03 04:49:35;;;;;;;33.05;20.95;;;;;;;;;;5039543;28;20086;-71
2022/12/03 04:52:01;;;;;;;32.15;21.23;;;;;;;;;;5041944;28;20045;-70
2022/12/03 04:54:28;;;;;;;33.72;20.90;;;;;;;;;;5041929;28;20103;-70
2022/12/03 04:56:54;;;;;;;34.10;20.98;;;;;;;;;;5042828;28;20052;-69
2022/12/03 04:59:20;;;;;;;33.17;20.58;;;;;;;;;;5042989;28;20044;-70
2022/12/03 05:01:46;;;;;;;32.25;20.98;;;;;;;;;;5042285;28;20480;-71
2022/12/03 05:04:13;;;;;;;30.60;20.05;;;;;;;;;;5040739;28;20090;-70
2022/12/03 05:06:39;;;;;;;35.85;21.65;;;;;;;;;;5026622;28;20099;-71
2022/12/03 05:09:05;;;;;;;34.28;21.00;;;;;;;;;;5041979;28;20052;-70
2022/12/03 05:11:31;;;;;;;30.40;20.13;;;;;;;;;;5041913;28;20056;-71
2022/12/03 05:13:57;;;;;;;32.83;20.15;;;;;;;;;;5024056;28;20064;-69
2022/12/03 05:16:23;;;;;;;31.98;20.15;;;;;;;;;;5024066;28;20072;-69
2022/12/03 05:18:49;;;;;;;32.22;21.10;;;;;;;;;;5039508;28;20464;-71
2022/12/03 05:21:15;;;;;;;34.33;20.08;;;;;;;;;;5040773;28;20080;-70
2022/12/03 05:23:42;;;;;;;31.13;19.42;;;;;;;;;;5042097;28;20044;-71
2022/12/03 05:26:08;;;;;;;33.15;21.33;;;;;;;;;;5040953;28;20518;-71
2022/12/03 05:28:34;;;;;;;33.08;20.52;;;;;;;;;;5040691;28;20045;-69
2022/12/03 05:31:00;;;;;;;31.02;20.20;;;;;;;;;;5046705;28;20075;-71
2022/12/03 05:33:26;;;;;;;30.67;20.20;;;;;;;;;;5043730;28;20098;-71
2022/12/03 05:35:52;;;;;;;30.58;20.02;;;;;;;;;;5044938;28;20068;-69
2022/12/03 05:38:18;;;;;;;31.25;20.77;;;;;;;;;;5047054;28;20120;-69
2022/12/03 05:40:44;;;;;;;33.28;21.60;;;;;;;;;;5047130;28;20132;-69
2022/12/03 05:43:10;;;;;;;33.63;21.17;;;;;;;;;;5043915;28;20049;-68
2022/12/03 05:45:38;;;;;;;35.50;21.80;;;;;;;;;;5042032;28;20049;-71
2022/12/03 05:48:05;;;;;;;35.00;21.45;;;;;;;;;;5044350;28;20044;-69
2022/12/03 05:50:33;;;;;;;37.85;22.02;;;;;;;;;;5048517;28;20048;-69
2022/12/03 05:52:59;;;;;;;34.80;21.98;;;;;;;;;;5046439;28;20770;-71
2022/12/03 05:55:26;;;;;;;34.33;22.35;;;;;;;;;;5043500;28;20057;-71
2022/12/03 05:57:52;;;;;;;34.72;21.90;;;;;;;;;;5045740;28;20055;-71
2022/12/03 06:00:20;;;;;;;36.55;22.55;;;;;;;;;;5051004;28;20040;-70
2022/12/03 06:02:46;;;;;;;36.97;22.90;;;;;;;;;;5044189;28;20060;-69
2022/12/03 06:05:13;;;;;;;32.85;21.65;;;;;;;;;;5042579;28;20451;-70
2022/12/03 06:07:39;;;;;;;35.45;21.95;;;;;;;;;;5042838;28;20099;-68
2022/12/03 06:10:06;;;;;;;36.67;22.15;;;;;;;;;;5045775;28;20130;-68
2022/12/03 06:12:32;;;;;;;35.47;21.38;;;;;;;;;;5029483;28;20041;-68
2022/12/03 06:14:58;;;;;;;36.05;21.63;;;;;;;;;;5044635;28;20052;-70
2022/12/03 06:17:25;;;;;;;38.50;22.27;;;;;;;;;;5046395;28;20063;-69
2022/12/03 06:19:51;;;;;;;34.85;21.33;;;;;;;;;;5046368;28;20044;-71
2022/12/03 06:22:17;;;;;;;39.03;22.15;;;;;;;;;;5042201;28;20053;-70
2022/12/03 06:24:43;;;;;;;39.45;21.38;;;;;;;;;;5043598;28;20060;-68
2022/12/03 06:27:09;;;;;;;34.47;21.50;;;;;;;;;;5045862;28;20041;-70
2022/12/03 06:29:35;;;;;;;36.08;21.25;;;;;;;;;;5047342;28;21373;-68
2022/12/03 06:32:01;;;;;;;41.17;21.73;;;;;;;;;;5043677;28;20028;-70
2022/12/03 06:34:27;;;;;;;33.47;20.63;;;;;;;;;;5044224;28;20525;-69
2022/12/03 06:36:53;;;;;;;34.85;21.60;;;;;;;;;;5028280;28;20049;-72
2022/12/03 06:39:19;;;;;;;35.45;21.45;;;;;;;;;;5046239;28;20044;-70
2022/12/03 06:41:45;;;;;;;34.85;21.95;;;;;;;;;;5043885;28;20144;-70
2022/12/03 06:44:11;;;;;;;32.90;20.83;;;;;;;;;;5042987;28;20131;-71
2022/12/03 06:46:37;;;;;;;36.95;21.20;;;;;;;;;;5043146;28;20052;-70
2022/12/03 06:49:03;;;;;;;34.28;20.80;;;;;;;;;;5040659;28;20068;-71
2022/12/03 06:51:29;;;;;;;34.13;20.42;;;;;;;;;;5042326;28;20048;-71
2022/12/03 06:53:55;;;;;;;31.75;20.35;;;;;;;;;;5042142;28;20037;-71
2022/12/03 06:56:21;;;;;;;34.65;20.83;;;;;;;;;;5039602;28;20044;-68
2022/12/03 06:58:47;;;;;;;34.25;20.95;;;;;;;;;;5045455;28;20041;-71
2022/12/03 07:01:13;;;;;;;35.65;20.42;;;;;;;;;;5040374;28;20533;-69
2022/12/03 07:03:39;;;;;;;35.75;21.83;;;;;;;;;;5037957;28;20045;-69
2022/12/03 07:06:05;;;;;;;33.83;21.08;;;;;;;;;;5026991;28;20048;-71
2022/12/03 07:08:31;;;;;;;37.90;22.08;;;;;;;;;;5045281;28;20041;-70
2022/12/03 07:10:57;;;;;;;35.75;21.73;;;;;;;;;;5042397;28;20044;-69
2022/12/03 07:13:23;;;;;;;35.83;22.45;;;;;;;;;;5042019;28;20036;-70
2022/12/03 07:15:49;;;;;;;38.55;22.98;;;;;;;;;;5042009;28;20080;-70
2022/12/03 07:18:15;;;;;;;38.90;23.13;;;;;;;;;;5044996;28;20132;-69
2022/12/03 07:20:41;;;;;;;38.78;22.55;;;;;;;;;;5041739;28;20463;-71
2022/12/03 07:23:07;;;;;;;37.72;23.35;;;;;;;;;;5044526;28;20063;-72
2022/12/03 07:25:33;;;;;;;40.70;26.48;;;;;;;;;;5041475;28;20442;-70
2022/12/03 07:27:59;;;;;;;44.08;26.75;;;;;;;;;;5041837;28;20049;-69
2022/12/03 07:30:26;;;;;;;49.20;27.73;;;;;;;;;;5039585;28;20037;-70
2022/12/03 07:32:52;;;;;;;46.35;28.08;;;;;;;;;;5038377;28;20047;-70
2022/12/03 07:35:18;;;;;;;47.78;28.67;;;;;;;;;;5037209;28;20071;-71
2022/12/03 07:37:44;;;;;;;46.80;28.20;;;;;;;;;;5039296;28;20738;-70
2022/12/03 07:40:11;;;;;;;49.15;28.63;;;;;;;;;;5039495;28;20135;-71
2022/12/03 07:42:37;;;;;;;51.13;28.90;;;;;;;;;;5039235;28;20052;-69
2022/12/03 07:45:03;;;;;;;47.47;28.23;;;;;;;;;;5039971;28;20221;-70
2022/12/03 07:47:29;;;;;;;49.78;29.23;;;;;;;;;;5027411;28;20072;-71
2022/12/03 07:49:55;;;;;;;45.42;28.55;;;;;;;;;;5038301;28;20094;-71
2022/12/03 07:52:21;;;;;;;51.25;29.27;;;;;;;;;;5039634;28;20084;-70
2022/12/03 07:54:47;;;;;;;54.78;29.65;;;;;;;;;;5035415;28;20041;-69
2022/12/03 07:57:13;;;;;;;59.90;29.55;;;;;;;;;;5039317;28;20033;-72
2022/12/03 07:59:39;;;;;;;52.70;28.40;;;;;;;;;;5040069;28;20059;-70
2022/12/03 08:02:05;;;;;;;75.57;31.23;;;;;;;;;;5039947;28;20492;-70
2022/12/03 08:04:31;;;;;;;55.28;29.48;;;;;;;;;;5042788;28;20037;-71
2022/12/03 08:06:58;;;;;;;50.53;28.23;;;;;;;;;;5037197;28;20041;-70
2022/12/03 08:09:24;;;;;;;52.90;29.27;;;;;;;;;;5038643;28;20381;-69
2022/12/03 08:11:50;;;;;;;50.38;29.98;;;;;;;;;;5036971;28;20047;-70
2022/12/03 08:14:17;;;;;;;47.30;29.08;;;;;;;;;;5050761;28;20051;-70
2022/12/03 08:16:44;;;;;;;53.67;30.05;;;;;;;;;;5052596;28;20044;-71
2022/12/03 08:19:14;;;;;;;51.65;29.38;;;;;;;;;;5052199;28;20147;-69
2022/12/03 08:21:42;;;;;;;49.63;28.70;;;;;;;;;;5032338;28;20091;-70
2022/12/03 08:24:13;;;;;;;50.13;29.70;;;;;;;;;;5045797;28;20151;-69
2022/12/03 08:26:39;;;;;;;50.35;29.20;;;;;;;;;;5043395;28;20132;-70
2022/12/03 08:29:09;;;;;;;52.38;29.25;;;;;;;;;;5050587;28;20044;-70
2022/12/03 08:31:35;;;;;;;51.85;30.17;;;;;;;;;;5044168;28;20068;-70
2022/12/03 08:34:30;;;;;;;54.53;29.98;;;;;;;;;;5046101;28;20056;-68
2022/12/03 08:37:01;;;;;;;51.28;29.60;;;;;;;;;;5035493;28;20037;-71
2022/12/03 08:39:36;;;;;;;52.20;29.50;;;;;;;;;;5046248;28;20041;-68
2022/12/03 08:45:16;;;;;;;49.10;28.05;;;;;;;;;;5044913;28;20053;-70
2022/12/03 08:47:42;;;;;;;51.97;30.27;;;;;;;;;;5047554;28;20045;-71
2022/12/03 08:50:28;;;;;;;52.45;30.08;;;;;;;;;;5046551;28;20056;-69
2022/12/03 08:52:57;;;;;;;49.47;28.95;;;;;;;;;;5044722;28;20041;-71
2022/12/03 08:55:36;;;;;;;51.63;30.27;;;;;;;;;;5045372;28;20045;-70
2022/12/03 08:58:19;;;;;;;50.80;29.35;;;;;;;;;;5044029;28;20036;-70
2022/12/03 09:00:45;;;;;;;;;;;;;;;;;;5023780;28;20140;-68
2022/12/03 09:03:15;;;;;;;50.22;28.08;;;;;;;;;;5044755;28;20011;-71
2022/12/03 09:05:41;;;;;;;49.30;28.48;;;;;;;;;;5056331;28;20069;-70
2022/12/03 09:08:07;;;;;;;51.47;29.02;;;;;;;;;;5053905;28;20535;-70
2022/12/03 09:10:33;;;;;;;49.20;29.80;;;;;;;;;;5051431;28;20047;-68
2022/12/03 09:12:59;;;;;;;42.55;26.77;;;;;;;;;;5052774;28;20064;-70
2022/12/03 09:15:25;;;;;;;47.65;28.02;;;;;;;;;;5046598;28;20041;-69
2022/12/03 09:17:51;;;;;;;48.90;28.15;;;;;;;;;;5048344;28;20399;-70
2022/12/03 09:20:17;;;;;;;47.95;28.38;;;;;;;;;;5049686;28;20128;-69
2022/12/03 09:22:43;;;;;;;51.17;29.02;;;;;;;;;;5048347;28;20148;-70
2022/12/03 09:25:09;;;;;;;47.95;28.33;;;;;;;;;;5045016;28;20049;-71
2022/12/03 09:27:35;;;;;;;45.45;27.83;;;;;;;;;;5048322;28;20110;-71
2022/12/03 09:30:01;;;;;;;48.67;25.95;;;;;;;;;;5052609;28;20041;-70
2022/12/03 09:32:27;;;;;;;43.67;26.83;;;;;;;;;;5052441;28;20487;-71
2022/12/03 09:34:53;;;;;;;44.22;26.08;;;;;;;;;;5050853;28;20049;-70
2022/12/03 09:37:21;;;;;;;46.47;27.33;;;;;;;;;;5052572;28;20049;-69
2022/12/03 09:39:47;;;;;;;46.33;27.30;;;;;;;;;;5043452;28;20420;-71
2022/12/03 09:42:13;;;;;;;42.25;26.70;;;;;;;;;;5046744;28;20041;-70
2022/12/03 09:44:39;;;;;;;45.22;27.83;;;;;;;;;;5051933;28;20041;-69
2022/12/03 09:47:05;;;;;;;42.95;26.27;;;;;;;;;;5048572;28;20064;-71
2022/12/03 09:49:32;;;;;;;43.42;26.30;;;;;;;;;;5047490;28;20045;-71
2022/12/03 09:52:00;;;;;;;45.42;26.85;;;;;;;;;;5041554;28;20059;-71
2022/12/03 09:54:27;;;;;;;45.88;27.67;;;;;;;;;;5045751;28;20591;-72
2022/12/03 09:56:54;;;;;;;44.13;26.92;;;;;;;;;;5044004;28;20129;-70
2022/12/03 09:59:21;;;;;;;43.65;25.48;;;;;;;;;;5047249;28;20041;-72
2022/12/03 10:01:47;;;;;;;44.58;27.73;;;;;;;;;;5044004;28;20131;-71
2022/12/03 10:04:13;;;;;;;45.63;27.30;;;;;;;;;;5047673;28;20068;-70
2022/12/03 10:06:39;;;;;;;42.42;26.45;;;;;;;;;;5038452;28;20104;-70
2022/12/03 10:09:05;;;;;;;47.28;27.60;;;;;;;;;;5041818;28;20080;-70
2022/12/03 10:11:34;;;;;;;50.90;27.58;;;;;;;;;;5042504;28;20550;-70
2022/12/03 10:14:00;;;;;;;45.47;28.92;;;;;;;;;;5041475;28;20049;-69
2022/12/03 10:16:27;;;;;;;47.45;28.15;;;;;;;;;;5044309;28;20155;-71
2022/12/03 10:18:55;;;;;;;44.20;27.33;;;;;;;;;;5037674;28;20051;-71
2022/12/03 10:21:27;;;;;;;47.25;28.75;;;;;;;;;;5042278;28;20785;-70
2022/12/03 10:24:12;;;;;;;49.55;29.48;;;;;;;;;;5043515;28;20412;-69
2022/12/03 10:26:41;;;;;;;46.40;29.05;;;;;;;;;;5045987;28;20044;-71
2022/12/03 10:29:27;;;;;;;48.83;29.80;;;;;;;;;;5047617;28;20060;-68
2022/12/03 10:32:07;;;;;;;46.85;29.40;;;;;;;;;;5043880;28;20041;-69
2022/12/03 10:34:34;;;;;;;48.42;29.50;;;;;;;;;;5039060;28;20979;-71
2022/12/03 10:37:20;;;;;;;48.08;29.55;;;;;;;;;;5044082;28;20064;-68
2022/12/03 10:40:07;;;;;;;48.33;29.42;;;;;;;;;;5041874;28;20060;-70
2022/12/03 10:42:34;;;;;;;49.08;29.30;;;;;;;;;;5044890;28;20037;-71
2022/12/03 10:45:08;;;;;;;48.00;29.30;;;;;;;;;;5039230;28;20045;-70
2022/12/03 10:47:34;;;;;;;47.92;28.58;;;;;;;;;;5041141;28;20041;-69
2022/12/03 10:50:02;;;;;;;48.97;29.88;;;;;;;;;;5040447;28;20129;-69
2022/12/03 10:52:28;;;;;;;48.83;29.48;;;;;;;;;;5047612;28;20041;-69
2022/12/03 10:54:54;;;;;;;45.72;27.67;;;;;;;;;;5050538;28;20120;-69
2022/12/03 10:57:20;;;;;;;43.97;26.92;;;;;;;;;;5045684;28;20453;-69
2022/12/03 10:59:46;;;;;;;47.35;27.67;;;;;;;;;;5048873;28;20048;-70
2022/12/03 11:02:19;;;;;;;47.58;28.27;;;;;;;;;;5050613;28;20040;-69
2022/12/03 11:04:46;;;;;;;47.35;29.33;;;;;;;;;;5044017;28;20040;-70
2022/12/03 11:07:14;;;;;;;47.58;28.27;;;;;;;;;;5050325;28;20041;-70
2022/12/03 11:09:42;;;;;;;48.28;29.75;;;;;;;;;;5041808;28;20034;-70
2022/12/03 11:12:16;;;;;;;47.35;28.25;;;;;;;;;;5032208;28;20372;-69
2022/12/03 11:14:52;;;;;;;46.72;27.98;;;;;;;;;;5049237;28;20037;-70
2022/12/03 11:17:24;;;;;;;44.45;27.88;;;;;;;;;;5049076;28;20151;-70
2022/12/03 11:19:51;;;;;;;43.40;27.25;;;;;;;;;;5046030;28;20041;-69
2022/12/03 11:22:27;;;;;;;45.17;27.42;;;;;;;;;;5047021;28;20045;-70
2022/12/03 11:25:12;;;;;;;46.78;28.63;;;;;;;;;;5047717;28;20048;-71
2022/12/03 11:27:43;;;;;;;44.67;28.33;;;;;;;;;;5049900;28;20136;-69
2022/12/03 11:30:09;;;;;;;47.10;28.08;;;;;;;;;;5048683;28;20045;-70
2022/12/03 11:32:35;;;;;;;47.38;27.95;;;;;;;;;;5046540;28;20400;-71
2022/12/03 11:35:01;;;;;;;43.28;27.65;;;;;;;;;;5049067;28;20091;-70
2022/12/03 11:37:27;;;;;;;47.85;29.45;;;;;;;;;;5048658;28;20090;-70
2022/12/03 11:40:09;;;;;;;46.92;29.30;;;;;;;;;;5046343;28;20095;-69
2022/12/03 11:42:39;;;;;;;46.70;28.48;;;;;;;;;;5042416;28;20075;-69
2022/12/03 11:45:05;;;;;;;47.80;29.08;;;;;;;;;;5046430;28;20064;-70
2022/12/03 11:47:37;;;;;;;43.38;26.80;;;;;;;;;;5041875;28;20047;-68
2022/12/03 11:50:23;;;;;;;44.38;27.58;;;;;;;;;;5046750;28;20037;-69
2022/12/03 11:52:54;;;;;;;45.25;28.27;;;;;;;;;;5033430;28;20488;-68
2022/12/03 11:55:33;;;;;;;45.58;27.88;;;;;;;;;;5043201;28;20488;-70
2022/12/03 11:58:04;;;;;;;43.75;28.83;;;;;;;;;;5062661;28;20052;-70
2022/12/03 12:00:31;;;;;;;46.63;28.23;;;;;;;;;;5046863;28;20518;-70
2022/12/03 12:02:57;;;;;;;46.63;29.30;;;;;;;;;;5047271;28;20106;-69
2022/12/03 12:05:25;;;;;;;47.80;29.33;;;;;;;;;;5047822;28;20408;-69
2022/12/03 12:07:52;;;;;;;47.85;30.13;;;;;;;;;;5048976;28;20052;-69
2022/12/03 12:10:37;;;;;;;45.42;28.80;;;;;;;;;;5046474;28;20037;-68
2022/12/03 12:13:03;;;;;;;44.47;28.38;;;;;;;;;;5040312;28;20040;-69
2022/12/03 12:15:39;;;;;;;44.95;27.92;;;;;;;;;;5044020;28;20049;-69
2022/12/03 12:18:40;;;;;;;47.03;29.48;;;;;;;;;;5041347;28;20053;-69
2022/12/03 12:21:25;;;;;;;50.92;29.83;;;;;;;;;;4988224;28;20049;-70
2022/12/03 12:23:51;;;;;;;47.20;28.58;;;;;;;;;;5029342;28;20044;-70
2022/12/03 12:26:17;;;;;;;47.60;28.67;;;;;;;;;;5036216;28;20067;-70
2022/12/03 12:28:43;;;;;;;49.50;29.00;;;;;;;;;;5041818;28;20851;-68
2022/12/03 12:31:12;;;;;;;48.25;28.88;;;;;;;;;;5043680;28;20052;-71
2022/12/03 12:33:38;;;;;;;47.83;28.58;;;;;;;;;;5042722;28;20124;-68
2022/12/03 12:36:05;;;;;;;47.35;29.10;;;;;;;;;;5045409;28;20627;-68
2022/12/03 12:38:32;;;;;;;45.38;28.23;;;;;;;;;;5042203;28;20045;-69
2022/12/03 12:41:02;;;;;;;47.75;29.42;;;;;;;;;;5041421;28;20683;-69
2022/12/03 12:43:31;;;;;;;46.13;29.83;;;;;;;;;;5046246;28;20891;-68
2022/12/03 12:46:00;;;;;;;47.75;30.27;;;;;;;;;;5040782;28;20453;-69
2022/12/03 12:48:27;;;;;;;47.25;29.15;;;;;;;;;;5043231;28;20110;-70
2022/12/03 12:50:58;;;;;;;45.95;28.90;;;;;;;;;;5046425;28;20064;-70
2022/12/03 12:53:31;;;;;;;47.38;28.95;;;;;;;;;;5044404;28;20037;-69
2022/12/03 12:56:06;;;;;;;47.08;30.15;;;;;;;;;;5043324;28;20049;-70
2022/12/03 12:58:32;;;;;;;47.95;30.15;;;;;;;;;;5039684;28;20064;-71
2022/12/03 13:01:00;;;;;;;49.85;30.40;;;;;;;;;;5041199;28;20052;-71
2022/12/03 13:03:29;;;;;;;47.15;29.92;;;;;;;;;;5045159;28;20072;-70
2022/12/03 13:05:56;;;;;;;47.35;29.83;;;;;;;;;;5042219;28;20060;-69
2022/12/03 13:08:32;;;;;;;47.50;28.58;;;;;;;;;;5041250;28;20044;-68
2022/12/03 13:10:59;;;;;;;47.38;29.70;;;;;;;;;;5041579;28;20487;-70
2022/12/03 13:13:26;;;;;;;46.17;29.85;;;;;;;;;;5038579;28;20045;-68
2022/12/03 13:15:57;;;;;;;46.83;29.67;;;;;;;;;;5042534;28;20056;-70
2022/12/03 13:18:25;;;;;;;47.60;29.58;;;;;;;;;;5036812;28;20143;-70
2022/12/03 13:20:51;;;;;;;46.70;28.55;;;;;;;;;;5036126;28;20131;-70
2022/12/03 13:23:36;;;;;;;48.13;28.70;;;;;;;;;;5038332;28;20045;-69
2022/12/03 13:26:11;;;;;;;48.80;29.63;;;;;;;;;;5036713;28;20072;-70
2022/12/03 13:28:37;;;;;;;44.47;28.05;;;;;;;;;;5042651;28;20041;-69
2022/12/03 13:31:17;;;;;;;47.70;28.92;;;;;;;;;;5048162;28;20045;-68
2022/12/03 13:33:43;;;;;;;49.08;30.10;;;;;;;;;;5047327;28;20037;-69
2022/12/03 13:36:14;;;;;;;50.42;30.63;;;;;;;;;;5045800;28;20037;-67
2022/12/03 13:38:40;;;;;;;47.08;29.15;;;;;;;;;;5047089;28;20049;-70
2022/12/03 13:42:37;;;;;;;51.28;29.33;;;;;;;;;;5045908;28;20098;-68
2022/12/03 13:43:54;;;;;;;51.03;29.77;;;;;;;;;;5048166;28;20056;-69
2022/12/03 13:46:20;;;;;;;47.58;29.48;;;;;;;;;;5049863;28;20052;-69
2022/12/03 13:48:46;;;;;;;47.42;28.85;;;;;;;;;;5044766;28;20041;-68
2022/12/03 13:51:32;;;;;;;47.88;30.23;;;;;;;;;;5040399;28;20612;-70
2022/12/03 13:53:59;;;;;;;53.10;30.80;;;;;;;;;;5031361;28;20123;-69
2022/12/03 13:56:29;;;;;;;51.38;31.48;;;;;;;;;;5049083;28;20059;-69
2022/12/03 13:58:56;;;;;;;48.92;29.63;;;;;;;;;;5042467;28;20055;-69
2022/12/03 14:01:22;;;;;;;50.10;30.83;;;;;;;;;;5044499;28;20080;-70
2022/12/03 14:03:48;;;;;;;53.05;31.33;;;;;;;;;;5046389;28;20059;-70
2022/12/03 14:06:14;;;;;;;50.08;30.13;;;;;;;;;;5048069;28;20045;-70
2022/12/03 14:08:40;;;;;;;49.40;30.55;;;;;;;;;;5044123;28;20080;-68
2022/12/03 14:11:06;;;;;;;52.50;30.95;;;;;;;;;;5047288;28;20040;-69
2022/12/03 14:13:32;;;;;;;51.42;31.60;;;;;;;;;;5048587;28;20053;-68
2022/12/03 14:15:58;;;;;;;52.97;31.20;;;;;;;;;;5044591;28;20080;-69
2022/12/03 14:18:24;;;;;;;64.68;40.35;;;;;;;;;;5044581;28;20052;-70
2022/12/03 14:20:50;;;;;;;53.88;32.40;;;;;;;;;;5042725;28;20037;-68
2022/12/03 14:23:16;;;;;;;50.28;31.05;;;;;;;;;;5047581;28;20503;-68
2022/12/03 14:25:45;;;;;;;50.15;29.63;;;;;;;;;;5047057;28;20045;-68
2022/12/03 14:28:11;;;;;;;49.05;30.40;;;;;;;;;;5051183;28;20045;-68
2022/12/03 14:30:37;;;;;;;50.85;29.70;;;;;;;;;;5047598;28;20495;-69
2022/12/03 14:33:04;;;;;;;49.83;29.73;;;;;;;;;;5047375;28;20075;-69
2022/12/03 14:35:30;;;;;;;55.35;31.48;;;;;;;;;;5045073;28;20078;-69
2022/12/03 14:37:56;;;;;;;46.92;29.60;;;;;;;;;;5042616;28;20049;-70
2022/12/03 14:40:22;;;;;;;49.42;29.83;;;;;;;;;;5046713;28;20055;-69